createdAt,value
2023-03-15T18:42:02.000Z,0
2023-03-15T18:42:12.000Z,404
2023-03-15T18:42:22.000Z,449
2023-03-15T18:42:32.000Z,419
2023-03-15T18:42:43.000Z,634
2023-03-15T18:42:53.000Z,607
2023-03-15T18:43:03.000Z,512
2023-03-15T18:43:13.000Z,461
2023-03-15T18:43:24.000Z,454
2023-03-15T18:43:34.000Z,565
2023-03-15T18:43:44.000Z,551
2023-03-15T18:43:54.000Z,551
2023-03-15T18:44:05.000Z,517
2023-03-15T18:44:15.000Z,536
2023-03-15T18:44:25.000Z,479
2023-03-15T18:44:35.000Z,505
2023-03-15T18:44:46.000Z,654
2023-03-15T18:44:56.000Z,567
2023-03-15T18:45:06.000Z,631
2023-03-15T18:45:16.000Z,758
2023-03-15T18:45:27.000Z,612
2023-03-15T18:45:37.000Z,641
2023-03-15T18:45:47.000Z,616
2023-03-15T18:45:57.000Z,626
2023-03-15T18:46:08.000Z,678
2023-03-15T18:46:18.000Z,715
2023-03-15T18:46:28.000Z,755
2023-03-15T18:46:39.000Z,688
2023-03-15T18:46:49.000Z,766
2023-03-15T18:46:59.000Z,577
2023-03-15T18:47:09.000Z,630
2023-03-15T18:47:20.000Z,667
2023-03-15T18:47:30.000Z,576
2023-03-15T18:47:40.000Z,645
2023-03-15T18:47:50.000Z,940
2023-03-15T18:48:00.000Z,638
2023-03-15T18:48:11.000Z,782
2023-03-15T18:48:21.000Z,764
2023-03-15T18:48:31.000Z,720
2023-03-15T18:48:42.000Z,754
2023-03-15T18:48:52.000Z,720
2023-03-15T18:49:02.000Z,804
2023-03-15T18:49:12.000Z,716
2023-03-15T18:49:23.000Z,560
2023-03-15T18:49:33.000Z,620
2023-03-15T18:49:43.000Z,483
2023-03-15T18:49:53.000Z,370
2023-03-15T18:50:04.000Z,387
2023-03-15T18:50:14.000Z,860
2023-03-15T18:50:24.000Z,1572
2023-03-15T18:50:34.000Z,1501
2023-03-15T18:50:45.000Z,1416
2023-03-15T18:50:55.000Z,1504
2023-03-15T18:51:05.000Z,1176
2023-03-15T18:51:15.000Z,755
2023-03-15T18:51:25.000Z,512
2023-03-15T18:51:36.000Z,582
2023-03-15T18:51:46.000Z,592
2023-03-15T18:51:55.000Z,540
2023-03-15T18:52:07.000Z,705
2023-03-15T18:52:17.000Z,615
2023-03-15T18:52:27.000Z,591
2023-03-15T18:52:38.000Z,733
2023-03-15T18:52:48.000Z,1082
2023-03-15T18:52:58.000Z,851
2023-03-15T18:53:08.000Z,774
2023-03-15T18:53:19.000Z,373
2023-03-15T18:53:29.000Z,664
2023-03-15T18:53:39.000Z,531
2023-03-15T18:53:49.000Z,562
2023-03-15T18:54:00.000Z,154
2023-03-15T18:54:10.000Z,5
2023-03-15T18:54:20.000Z,4
2023-03-15T18:54:30.000Z,4
2023-03-15T18:54:41.000Z,5
2023-03-15T18:54:51.000Z,6
2023-03-15T18:55:01.000Z,6
2023-03-15T18:55:11.000Z,9
2023-03-15T18:55:22.000Z,10
2023-03-15T18:55:32.000Z,5
2023-03-15T18:55:42.000Z,4
2023-03-15T18:55:52.000Z,7
2023-03-15T18:56:03.000Z,5
2023-03-15T18:56:13.000Z,6
2023-03-15T18:56:23.000Z,5
2023-03-15T18:56:33.000Z,5
2023-03-15T18:56:44.000Z,5
2023-03-15T18:56:54.000Z,6
2023-03-15T18:57:04.000Z,5
2023-03-15T18:57:14.000Z,6
2023-03-15T18:57:25.000Z,4
2023-03-15T18:57:35.000Z,4
2023-03-15T18:57:45.000Z,4
2023-03-15T18:57:55.000Z,6
2023-03-15T18:58:06.000Z,5
2023-03-15T18:58:16.000Z,4
2023-03-15T18:58:26.000Z,5
2023-03-15T18:58:36.000Z,5
2023-03-15T18:58:47.000Z,5
2023-03-15T18:58:56.000Z,221
2023-03-15T18:59:07.000Z,520
2023-03-15T18:59:17.000Z,539
2023-03-15T18:59:28.000Z,679
2023-03-15T18:59:38.000Z,545
2023-03-15T18:59:48.000Z,427
2023-03-15T18:59:58.000Z,873
2023-03-15T19:00:09.000Z,728
2023-03-15T19:00:19.000Z,729
2023-03-15T19:00:29.000Z,1011
2023-03-15T19:00:39.000Z,1277
2023-03-15T19:00:50.000Z,1305
2023-03-15T19:01:00.000Z,1399
2023-03-15T19:01:10.000Z,1084
2023-03-15T19:01:20.000Z,481
2023-03-15T19:01:31.000Z,29
2023-03-15T19:01:41.000Z,8
2023-03-15T19:01:51.000Z,303
2023-03-15T19:02:00.000Z,889
2023-03-15T19:02:12.000Z,908
2023-03-15T19:02:22.000Z,716
2023-03-15T19:02:32.000Z,853
2023-03-15T19:02:42.000Z,902
2023-03-15T19:02:53.000Z,925
2023-03-15T19:03:03.000Z,972
2023-03-15T19:03:13.000Z,915
2023-03-15T19:03:23.000Z,906
2023-03-15T19:03:34.000Z,822
2023-03-15T19:03:44.000Z,988
2023-03-15T19:03:54.000Z,1159
2023-03-15T19:04:04.000Z,983
2023-03-15T19:04:15.000Z,986
2023-03-15T19:04:24.000Z,770
2023-03-15T19:04:35.000Z,703
2023-03-15T19:04:46.000Z,576
2023-03-15T19:04:56.000Z,351
2023-03-15T19:05:06.000Z,30
2023-03-15T19:05:16.000Z,17
2023-03-15T19:05:25.000Z,186
2023-03-15T19:05:37.000Z,294
2023-03-15T19:05:43.000Z,244
2023-03-15T19:05:55.000Z,234
2023-03-15T19:06:08.000Z,482
2023-03-15T19:06:18.000Z,376
2023-03-15T19:06:29.000Z,482
2023-03-15T19:06:38.000Z,453
2023-03-15T19:06:49.000Z,480
2023-03-15T19:06:59.000Z,422
2023-03-15T19:07:10.000Z,554
2023-03-15T19:07:20.000Z,568
2023-03-15T19:07:30.000Z,398
2023-03-15T19:07:40.000Z,353
2023-03-15T19:07:51.000Z,415
2023-03-15T19:08:01.000Z,507
2023-03-15T19:08:11.000Z,494
2023-03-15T19:08:21.000Z,495
2023-03-15T19:08:32.000Z,482
2023-03-15T19:08:42.000Z,424
2023-03-15T19:08:52.000Z,422
2023-03-15T19:09:02.000Z,377
2023-03-15T19:09:13.000Z,419
2023-03-15T19:09:23.000Z,679
2023-03-15T19:09:33.000Z,597
2023-03-15T19:09:44.000Z,216
2023-03-15T19:09:54.000Z,1
2023-03-15T19:10:04.000Z,27
2023-03-15T19:10:15.000Z,80
